DQTA4: Rolling Fork Below Dequeen Lake Near Dequeen, AR

Data processed at Fri Jul 03 23:46:24 2015 Central Daylight Time


All information presented herein is the property of the government of the United States of America and may be revised or deleted at any time without prior notice.
Dissemination of this information without the expressed written consent of the Public Affairs Office, Tulsa District U.S. Army Corps of Engineers is strictly prohibited.
These data are gathered electronically and, as presented, have not undergone any form of quality control. These data are not guaranteed to be valid or correct.
Go to home page.
Go to station list.
Go to station map.

Upstream stations:

Downstream station: Previous Day
Next Day
Current Day

Display graphics.
Display DCP transmissions.


    
    SHEF ID:       DQTA4     Rolling Fork Below Dequeen Lake Near Dequeen, AR
    STATION TYPE:  STREAM GAGE
    Regulation Limits:  Stage = -901.00, Flow =    -901
    
                  TW-ELEV   RELEASE   VOLTAGE
                     FEET       CFS     VOLTS
                     GOES      GOES      GOES
       (Cen)
    07/03 01:00    368.11       829     15.00
    07/03 02:00    368.02       793     15.00
    07/03 03:00    368.13       837     15.00
    07/03 04:00    368.10       825     15.00
    07/03 05:00    367.99       781     13.90
    07/03 06:00    367.96       769     15.00
    07/03 07:00    368.04       801     13.90
    07/03 08:00    368.07       813     15.00
    07/03 09:00    368.08       817     14.20
    07/03 10:00    368.05       805     15.00
    07/03 11:00    368.08       817     14.30
    07/03 12:00    368.07       813     13.90
    07/03 13:00    368.02       793     13.90
    07/03 14:00    368.06       809     13.90
    07/03 15:00    368.04       801     14.50
    07/03 16:00    368.04       801     15.00
    07/03 17:00    368.02       793     15.00
    07/03 18:00    368.07       813     15.00
    07/03 19:00    368.08       817     15.00
    07/03 20:00    368.01       789     15.00
    07/03 21:00    367.97       773     13.90
    07/03 22:00    368.01       789     15.00
    07/03 23:00    368.11       829     13.90
    07/04 00:00      ----      ----      ----